Ns Concord — A8FD7 — position and weather

sailwx.info

Track history (hours):
 
Tides and Currents Weather Stations Pressure Air Temp Water Temp Dewpoint Dewpoint Depression Visibility Wind Speed Wind Dir Waves Ship Positions

Ns Concord

Last reported at 2018-Jan-22 08:00 UTC. Time now 2018-Jan-22 08:05 UTC.
Position N 54°47' W 000°42'.

Length 243 m; draft 8.2 m.

Type: Tanker. MMSI: 636012382.

Date/timePositionNaut miles runAvg speedWind from/ knotsBaromVisibWave heightAir tempDewpointWater temp
2018-Jan-22 08:00N 54°47' W 000°42'1 1.3
2018-Jan-22 07:30N 54°46' W 000°43'1 1.3
2018-Jan-22 06:58N 54°46' W 000°44'1 1.2
2018-Jan-22 06:30N 54°46' W 000°45'0 0.2
2018-Jan-22 06:00N 54°46' W 000°45'5 9.6
2018-Jan-22 05:30N 54°51' W 000°42'611.7
2018-Jan-22 05:00N 54°56' W 000°43'510.7
2018-Jan-22 04:31N 54°59' W 000°51'1 1.4
2018-Jan-22 04:00N 54°58' W 000°52'1 1.0
2018-Jan-22 03:30N 54°58' W 000°52'1 1.1
2018-Jan-22 03:00N 54°57' W 000°52'1 1.2
2018-Jan-22 02:30N 54°57' W 000°52'1 1.4
2018-Jan-22 02:00N 54°56' W 000°52'1 1.7
2018-Jan-22 01:30N 54°55' W 000°51'1 2.0
2018-Jan-22 01:00N 54°54' W 000°51'1 2.1
2018-Jan-22 00:30N 54°53' W 000°51'1 2.3
2018-Jan-22 00:00N 54°52' W 000°50'1 2.3
2018-Jan-21 23:30N 54°51' W 000°50'1 2.3
2018-Jan-21 23:00N 54°50' W 000°50'1 2.2
2018-Jan-21 22:30N 54°49' W 000°49'1 1.8
2018-Jan-21 21:59N 54°48' W 000°49'1 1.3
2018-Jan-21 21:30N 54°47' W 000°48'1 1.4
2018-Jan-21 21:00N 54°47' W 000°47'1 1.6
2018-Jan-21 20:30N 54°46' W 000°46'1 1.7
2018-Jan-21 19:59N 54°46' W 000°45'1 1.7
2018-Jan-21 19:30N 54°45' W 000°43'1 1.6
2018-Jan-21 19:00N 54°45' W 000°42'8 3.4
2018-Jan-21 16:41N 54°52' W 000°36'2 7.6
2018-Jan-21 16:27N 54°54' W 000°36'1 3.0
2018-Jan-21 15:59N 54°54' W 000°39'1 2.2
2018-Jan-21 15:30N 54°53' W 000°40'2 2.0
2018-Jan-21 14:26N 54°52' W 000°43'1 1.7
2018-Jan-21 13:56N 54°52' W 000°45'1 1.6
2018-Jan-21 13:28N 54°51' W 000°46'1 1.4
2018-Jan-21 12:58N 54°51' W 000°46'1 1.3
2018-Jan-21 12:30N 54°50' W 000°47'0 1.0
2018-Jan-21 12:00N 54°50' W 000°47'0 0.9
2018-Jan-21 11:30N 54°49' W 000°47'0 0.7
2018-Jan-21 11:00N 54°49' W 000°48'0 0.5
2018-Jan-21 10:30N 54°49' W 000°48'0 0.7
2018-Jan-21 10:00N 54°49' W 000°49'1 2.4
2018-Jan-21 09:30N 54°48' W 000°48'611.9
2018-Jan-21 08:58N 54°44' W 000°40'3 5.9
2018-Jan-21 08:30N 54°42' W 000°36'2 1.8
2018-Jan-21 07:11N 54°44' W 000°39'1 2.2
2018-Jan-21 06:48N 54°44' W 000°40'1 2.3
2018-Jan-21 06:30N 54°45' W 000°41'1 2.3
2018-Jan-21 06:00N 54°46' W 000°42'1 2.4
2018-Jan-21 05:30N 54°47' W 000°43'1 2.2
2018-Jan-21 04:58N 54°47' W 000°45'1 1.9
2018-Jan-21 04:20N 54°48' W 000°46'0 1.4
2018-Jan-21 04:00N 54°49' W 000°47'1 1.2
2018-Jan-21 03:29N 54°49' W 000°48'1 1.1
2018-Jan-21 03:00N 54°49' W 000°48'0 1.0
2018-Jan-21 02:30N 54°49' W 000°49'0 0.8
2018-Jan-21 02:00N 54°50' W 000°50'0 0.8
2018-Jan-21 01:30N 54°50' W 000°50'0 0.9
2018-Jan-21 01:00N 54°49' W 000°51'1 1.6
2018-Jan-21 00:30N 54°49' W 000°52'4 7.6
2018-Jan-21 00:00N 54°52' W 000°47'1 1.8
2018-Jan-20 23:30N 54°52' W 000°47'1 1.3
2018-Jan-20 23:00N 54°52' W 000°48'1 1.9
2018-Jan-20 22:30N 54°51' W 000°49'4 7.1
2018-Jan-20 22:00N 54°48' W 000°47'611.3
2018-Jan-20 21:29N 54°42' W 000°44'2 1.6
2018-Jan-20 20:02N 54°40' W 000°46'0 1.7
2018-Jan-20 20:00N 54°40' W 000°46'1 1.8
2018-Jan-20 19:30N 54°40' W 000°48'1 2.0
2018-Jan-20 18:57N 54°41' W 000°49'1 2.0
2018-Jan-20 18:30N 54°42' W 000°50'1 2.1
2018-Jan-20 17:59N 54°42' W 000°52'1 2.2
2018-Jan-20 17:20N 54°43' W 000°54'1 2.1
2018-Jan-20 17:00N 54°44' W 000°55'1 1.9
2018-Jan-20 16:30N 54°44' W 000°56'1 1.7
2018-Jan-20 16:00N 54°45' W 000°57'1 1.6
2018-Jan-20 15:30N 54°45' W 000°58'1 1.4
2018-Jan-20 15:00N 54°46' W 000°59'1 1.2
2018-Jan-20 14:30N 54°46' W 000°60'0 0.9
2018-Jan-20 14:00N 54°46' W 001°01'1 1.1
2018-Jan-20 13:30N 54°46' W 001°01'1 2.5
2018-Jan-20 13:00N 54°45' W 000°60'4 8.8
2018-Jan-20 12:30N 54°45' W 000°52'612.2
2018-Jan-20 12:00N 54°43' W 000°42'612.9
2018-Jan-20 11:30N 54°41' W 000°32'712.9
2018-Jan-20 11:00N 54°38' W 000°21'613.0
2018-Jan-20 10:30N 54°36' W 000°11'612.7
2018-Jan-20 10:00N 54°33' W 000°01'612.5
2018-Jan-20 09:30N 54°31' E 000°09'612.2
2018-Jan-20 09:00N 54°28' E 000°18'611.8
2018-Jan-20 08:30N 54°26' E 000°28'711.4
2018-Jan-20 07:56N 54°23' E 000°38'17010.0
2018-Jan-19 14:53N 51°49' E 002°38'513.2
2018-Jan-19 14:30N 51°44' E 002°35'814.4
2018-Jan-19 13:58N 51°38' E 002°27'714.2
2018-Jan-19 13:30N 51°33' E 002°20'713.9
2018-Jan-19 13:00N 51°28' E 002°13'612.1
2018-Jan-19 12:30N 51°23' E 002°08'510.7
2018-Jan-19 12:00N 51°17' E 002°08'611.2
2018-Jan-19 11:30N 51°13' E 002°02'713.1
2018-Jan-19 11:00N 51°10' E 001°53'612.3
2018-Jan-19 10:31N 51°07' E 001°44'611.1
2018-Jan-19 10:01N 51°03' E 001°38'510.8
2018-Jan-19 09:30N 50°60' E 001°32'510.1
2018-Jan-19 09:00N 50°56' E 001°26'510.1
2018-Jan-19 08:29N 50°51' E 001°24'510.4
2018-Jan-19 08:00N 50°46' E 001°22'5110.7
2018-Jan-19 03:14N 50°22' E 000°11'311.3
2018-Jan-19 03:00N 50°21' E 000°07'611.5
2018-Jan-19 02:30N 50°19' W 000°01'611.6
2018-Jan-19 02:00N 50°18' W 000°10'611.6
2018-Jan-19 01:30N 50°17' W 000°19'7414.3
2018-Jan-18 20:18N 49°58' W 002°11'615.6
2018-Jan-18 19:54N 49°56' W 002°20'715.0
2018-Jan-18 19:24N 49°55' W 002°32'714.3
2018-Jan-18 18:54N 49°53' W 002°42'614.0
2018-Jan-18 18:30N 49°51' W 002°51'1213.5
2018-Jan-18 17:38N 49°52' W 003°09'213.7
2018-Jan-18 17:30N 49°52' W 003°12'713.5
2018-Jan-18 17:00N 49°53' W 003°22'712.7
2018-Jan-18 16:29N 49°55' W 003°32'713.0
2018-Jan-18 15:57N 49°56' W 003°42'612.7
2018-Jan-18 15:30N 49°57' W 003°51'912.5
2018-Jan-18 14:46N 49°59' W 004°05'312.4
2018-Jan-18 14:30N 49°59' W 004°10'612.3
2018-Jan-18 14:00N 50°01' W 004°20'612.3
2018-Jan-18 13:30N 50°01' W 004°29'612.2
2018-Jan-18 12:59N 50°02' W 004°39'612.2
2018-Jan-18 12:30N 50°02' W 004°48'611.1
2018-Jan-18 12:00N 50°04' W 004°56'2 3.9
2018-Jan-18 11:30N 50°02' W 004°58'4 8.6
2018-Jan-18 11:01N 49°58' W 004°55'5 9.7
2018-Jan-18 10:30N 49°56' W 004°48'51 7.0
2018-Jan-18 03:16N 50°18' W 005°60'9 6.0
2018-Jan-18 01:49N 50°26' W 005°57'4 6.6
2018-Jan-18 01:15N 50°30' W 005°55'2 6.1
2018-Jan-18 01:00N 50°31' W 005°54'6 6.3
2018-Jan-18 00:01N 50°37' W 005°50'0 7.5
2018-Jan-17 23:57N 50°37' W 005°50'  
2018-Jan-12 14:56N 51°31' W 005°25'0 0.0
2018-Jan-12 14:20N 51°31' W 005°25'0 0.1
2018-Jan-12 13:50N 51°31' W 005°25'0 0.1
2018-Jan-12 11:14N 51°31' W 005°24'0 0.0
2018-Jan-12 10:50N 51°31' W 005°24'0 0.0
2018-Jan-12 08:08N 51°31' W 005°25'  
Track history (hours):
 
Tides and Currents Weather Stations Pressure Air Temp Water Temp Dewpoint Dewpoint Depression Visibility Wind Speed Wind Dir Waves Ship Positions

Ns Concord

Last reported at 2018-Jan-22 08:00 UTC. Time now 2018-Jan-22 08:05 UTC.
Position N 54°47' W 000°42'.

Length 243 m; draft 8.2 m.

Type: Tanker. MMSI: 636012382.

Date/timePositionNaut miles runAvg speedWind from/ knotsBaromVisibWave heightAir tempDewpointWater temp
2018-Jan-22 08:00N 54°47' W 000°42'1 1.3
2018-Jan-22 07:30N 54°46' W 000°43'1 1.3
2018-Jan-22 06:58N 54°46' W 000°44'1 1.2
2018-Jan-22 06:30N 54°46' W 000°45'0 0.2
2018-Jan-22 06:00N 54°46' W 000°45'5 9.6
2018-Jan-22 05:30N 54°51' W 000°42'611.7
2018-Jan-22 05:00N 54°56' W 000°43'510.7
2018-Jan-22 04:31N 54°59' W 000°51'1 1.4
2018-Jan-22 04:00N 54°58' W 000°52'1 1.0
2018-Jan-22 03:30N 54°58' W 000°52'1 1.1
2018-Jan-22 03:00N 54°57' W 000°52'1 1.2
2018-Jan-22 02:30N 54°57' W 000°52'1 1.4
2018-Jan-22 02:00N 54°56' W 000°52'1 1.7
2018-Jan-22 01:30N 54°55' W 000°51'1 2.0
2018-Jan-22 01:00N 54°54' W 000°51'1 2.1
2018-Jan-22 00:30N 54°53' W 000°51'1 2.3
2018-Jan-22 00:00N 54°52' W 000°50'1 2.3
2018-Jan-21 23:30N 54°51' W 000°50'1 2.3
2018-Jan-21 23:00N 54°50' W 000°50'1 2.2
2018-Jan-21 22:30N 54°49' W 000°49'1 1.8
2018-Jan-21 21:59N 54°48' W 000°49'1 1.3
2018-Jan-21 21:30N 54°47' W 000°48'1 1.4
2018-Jan-21 21:00N 54°47' W 000°47'1 1.6
2018-Jan-21 20:30N 54°46' W 000°46'1 1.7
2018-Jan-21 19:59N 54°46' W 000°45'1 1.7
2018-Jan-21 19:30N 54°45' W 000°43'1 1.6
2018-Jan-21 19:00N 54°45' W 000°42'8 3.4
2018-Jan-21 16:41N 54°52' W 000°36'2 7.6
2018-Jan-21 16:27N 54°54' W 000°36'1 3.0
2018-Jan-21 15:59N 54°54' W 000°39'1 2.2
2018-Jan-21 15:30N 54°53' W 000°40'2 2.0
2018-Jan-21 14:26N 54°52' W 000°43'1 1.7
2018-Jan-21 13:56N 54°52' W 000°45'1 1.6
2018-Jan-21 13:28N 54°51' W 000°46'1 1.4
2018-Jan-21 12:58N 54°51' W 000°46'1 1.3
2018-Jan-21 12:30N 54°50' W 000°47'0 1.0
2018-Jan-21 12:00N 54°50' W 000°47'0 0.9
2018-Jan-21 11:30N 54°49' W 000°47'0 0.7
2018-Jan-21 11:00N 54°49' W 000°48'0 0.5
2018-Jan-21 10:30N 54°49' W 000°48'0 0.7
2018-Jan-21 10:00N 54°49' W 000°49'1 2.4
2018-Jan-21 09:30N 54°48' W 000°48'611.9
2018-Jan-21 08:58N 54°44' W 000°40'3 5.9
2018-Jan-21 08:30N 54°42' W 000°36'2 1.8
2018-Jan-21 07:11N 54°44' W 000°39'1 2.2
2018-Jan-21 06:48N 54°44' W 000°40'1 2.3
2018-Jan-21 06:30N 54°45' W 000°41'1 2.3
2018-Jan-21 06:00N 54°46' W 000°42'1 2.4
2018-Jan-21 05:30N 54°47' W 000°43'1 2.2
2018-Jan-21 04:58N 54°47' W 000°45'1 1.9
2018-Jan-21 04:20N 54°48' W 000°46'0 1.4
2018-Jan-21 04:00N 54°49' W 000°47'1 1.2
2018-Jan-21 03:29N 54°49' W 000°48'1 1.1
2018-Jan-21 03:00N 54°49' W 000°48'0 1.0
2018-Jan-21 02:30N 54°49' W 000°49'0 0.8
2018-Jan-21 02:00N 54°50' W 000°50'0 0.8
2018-Jan-21 01:30N 54°50' W 000°50'0 0.9
2018-Jan-21 01:00N 54°49' W 000°51'1 1.6
2018-Jan-21 00:30N 54°49' W 000°52'4 7.6
2018-Jan-21 00:00N 54°52' W 000°47'1 1.8
2018-Jan-20 23:30N 54°52' W 000°47'1 1.3
2018-Jan-20 23:00N 54°52' W 000°48'1 1.9
2018-Jan-20 22:30N 54°51' W 000°49'4 7.1
2018-Jan-20 22:00N 54°48' W 000°47'611.3
2018-Jan-20 21:29N 54°42' W 000°44'2 1.6
2018-Jan-20 20:02N 54°40' W 000°46'0 1.7
2018-Jan-20 20:00N 54°40' W 000°46'1 1.8
2018-Jan-20 19:30N 54°40' W 000°48'1 2.0
2018-Jan-20 18:57N 54°41' W 000°49'1 2.0
2018-Jan-20 18:30N 54°42' W 000°50'1 2.1
2018-Jan-20 17:59N 54°42' W 000°52'1 2.2
2018-Jan-20 17:20N 54°43' W 000°54'1 2.1
2018-Jan-20 17:00N 54°44' W 000°55'1 1.9
2018-Jan-20 16:30N 54°44' W 000°56'1 1.7
2018-Jan-20 16:00N 54°45' W 000°57'1 1.6
2018-Jan-20 15:30N 54°45' W 000°58'1 1.4
2018-Jan-20 15:00N 54°46' W 000°59'1 1.2
2018-Jan-20 14:30N 54°46' W 000°60'0 0.9
2018-Jan-20 14:00N 54°46' W 001°01'1 1.1
2018-Jan-20 13:30N 54°46' W 001°01'1 2.5
2018-Jan-20 13:00N 54°45' W 000°60'4 8.8
2018-Jan-20 12:30N 54°45' W 000°52'612.2
2018-Jan-20 12:00N 54°43' W 000°42'612.9
2018-Jan-20 11:30N 54°41' W 000°32'712.9
2018-Jan-20 11:00N 54°38' W 000°21'613.0
2018-Jan-20 10:30N 54°36' W 000°11'612.7
2018-Jan-20 10:00N 54°33' W 000°01'612.5
2018-Jan-20 09:30N 54°31' E 000°09'612.2
2018-Jan-20 09:00N 54°28' E 000°18'611.8
2018-Jan-20 08:30N 54°26' E 000°28'711.4
2018-Jan-20 07:56N 54°23' E 000°38'17010.0
2018-Jan-19 14:53N 51°49' E 002°38'513.2
2018-Jan-19 14:30N 51°44' E 002°35'814.4
2018-Jan-19 13:58N 51°38' E 002°27'714.2
2018-Jan-19 13:30N 51°33' E 002°20'713.9
2018-Jan-19 13:00N 51°28' E 002°13'612.1
2018-Jan-19 12:30N 51°23' E 002°08'510.7
2018-Jan-19 12:00N 51°17' E 002°08'611.2
2018-Jan-19 11:30N 51°13' E 002°02'713.1
2018-Jan-19 11:00N 51°10' E 001°53'612.3
2018-Jan-19 10:31N 51°07' E 001°44'611.1
2018-Jan-19 10:01N 51°03' E 001°38'510.8
2018-Jan-19 09:30N 50°60' E 001°32'510.1
2018-Jan-19 09:00N 50°56' E 001°26'510.1
2018-Jan-19 08:29N 50°51' E 001°24'510.4
2018-Jan-19 08:00N 50°46' E 001°22'5110.7
2018-Jan-19 03:14N 50°22' E 000°11'311.3
2018-Jan-19 03:00N 50°21' E 000°07'611.5
2018-Jan-19 02:30N 50°19' W 000°01'611.6
2018-Jan-19 02:00N 50°18' W 000°10'611.6
2018-Jan-19 01:30N 50°17' W 000°19'7414.3
2018-Jan-18 20:18N 49°58' W 002°11'615.6
2018-Jan-18 19:54N 49°56' W 002°20'715.0
2018-Jan-18 19:24N 49°55' W 002°32'714.3
2018-Jan-18 18:54N 49°53' W 002°42'614.0
2018-Jan-18 18:30N 49°51' W 002°51'1213.5
2018-Jan-18 17:38N 49°52' W 003°09'213.7
2018-Jan-18 17:30N 49°52' W 003°12'713.5
2018-Jan-18 17:00N 49°53' W 003°22'712.7
2018-Jan-18 16:29N 49°55' W 003°32'713.0
2018-Jan-18 15:57N 49°56' W 003°42'612.7
2018-Jan-18 15:30N 49°57' W 003°51'912.5
2018-Jan-18 14:46N 49°59' W 004°05'312.4
2018-Jan-18 14:30N 49°59' W 004°10'612.3
2018-Jan-18 14:00N 50°01' W 004°20'612.3
2018-Jan-18 13:30N 50°01' W 004°29'612.2
2018-Jan-18 12:59N 50°02' W 004°39'612.2
2018-Jan-18 12:30N 50°02' W 004°48'611.1
2018-Jan-18 12:00N 50°04' W 004°56'2 3.9
2018-Jan-18 11:30N 50°02' W 004°58'4 8.6
2018-Jan-18 11:01N 49°58' W 004°55'5 9.7
2018-Jan-18 10:30N 49°56' W 004°48'51 7.0
2018-Jan-18 03:16N 50°18' W 005°60'9 6.0
2018-Jan-18 01:49N 50°26' W 005°57'4 6.6
2018-Jan-18 01:15N 50°30' W 005°55'2 6.1
2018-Jan-18 01:00N 50°31' W 005°54'6 6.3
2018-Jan-18 00:01N 50°37' W 005°50'0 7.5
2018-Jan-17 23:57N 50°37' W 005°50'  
2018-Jan-12 14:56N 51°31' W 005°25'0 0.0
2018-Jan-12 14:20N 51°31' W 005°25'0 0.1
2018-Jan-12 13:50N 51°31' W 005°25'0 0.1
2018-Jan-12 11:14N 51°31' W 005°24'0 0.0
2018-Jan-12 10:50N 51°31' W 005°24'0 0.0
2018-Jan-12 08:08N 51°31' W 005°25'  

Dump ship's entire track history